createdAt,value
2018-12-19T00:00:25.783Z,20.90
2018-12-19T00:02:53.227Z,21.20
2018-12-19T00:05:20.747Z,21.67
2018-12-19T00:07:48.179Z,21.60
2018-12-19T00:10:15.622Z,20.50
2018-12-19T00:12:43.076Z,22.03
2018-12-19T00:15:10.507Z,20.23
2018-12-19T00:17:37.959Z,20.43
2018-12-19T00:20:06.343Z,20.63
2018-12-19T00:22:33.803Z,21.40
2018-12-19T00:25:01.467Z,20.63
2018-12-19T00:27:28.920Z,22.50
2018-12-19T00:29:56.356Z,21.23
2018-12-19T00:32:23.810Z,20.23
2018-12-19T00:34:51.291Z,22.50
2018-12-19T00:37:18.758Z,22.17
2018-12-19T00:39:46.212Z,22.90
2018-12-19T00:42:13.663Z,23.80
2018-12-19T00:44:41.117Z,22.87
2018-12-19T00:47:08.548Z,23.23
2018-12-19T00:49:36.101Z,24.30
2018-12-19T00:52:03.533Z,22.63
2018-12-19T00:54:30.968Z,23.80
2018-12-19T00:56:58.416Z,22.97
2018-12-19T00:59:25.843Z,23.93
2018-12-19T01:01:53.303Z,23.97
2018-12-19T01:04:20.750Z,22.50
2018-12-19T01:06:48.207Z,23.37
2018-12-19T01:09:16.008Z,23.23
2018-12-19T01:11:43.582Z,23.60
2018-12-19T01:14:11.027Z,23.13
2018-12-19T01:16:38.473Z,23.57
2018-12-19T01:19:05.951Z,23.60
2018-12-19T01:21:34.343Z,23.93
2018-12-19T01:24:01.781Z,22.97
2018-12-19T01:26:29.231Z,23.90
2018-12-19T01:28:56.687Z,24.00
2018-12-19T01:31:24.181Z,23.03
2018-12-19T01:33:51.604Z,23.13
2018-12-19T01:36:19.059Z,22.67
2018-12-19T01:38:46.497Z,22.27
2018-12-19T01:41:13.976Z,24.03
2018-12-19T01:43:41.486Z,23.43
2018-12-19T01:46:08.954Z,23.20
2018-12-19T01:48:36.392Z,23.37
2018-12-19T01:51:03.877Z,22.50
2018-12-19T01:53:31.331Z,22.70
2018-12-19T01:55:58.915Z,23.10
2018-12-19T01:58:26.371Z,22.10
2018-12-19T02:00:53.804Z,22.00
2018-12-19T02:03:21.328Z,22.50
2018-12-19T02:05:48.766Z,21.27
2018-12-19T02:08:16.239Z,23.43
2018-12-19T02:10:43.683Z,22.47
2018-12-19T02:13:11.119Z,21.63
2018-12-19T02:15:38.583Z,21.30
2018-12-19T02:18:06.026Z,21.30
2018-12-19T02:20:33.464Z,20.93
2018-12-19T02:23:00.891Z,21.53
2018-12-19T02:25:28.339Z,21.67
2018-12-19T02:27:55.794Z,20.60
2018-12-19T02:30:23.240Z,22.40
2018-12-19T02:32:50.701Z,21.20
2018-12-19T02:35:18.126Z,21.30
2018-12-19T02:37:45.595Z,20.87
2018-12-19T02:40:13.043Z,21.07
2018-12-19T02:42:40.515Z,21.27
2018-12-19T02:45:07.959Z,20.73
2018-12-19T02:47:35.391Z,21.43
2018-12-19T02:50:03.781Z,21.00
2018-12-19T02:52:31.229Z,21.27
2018-12-19T02:54:58.711Z,20.43
2018-12-19T02:57:26.143Z,22.00
2018-12-19T02:59:53.571Z,21.60
2018-12-19T03:02:21.023Z,20.80
2018-12-19T03:04:48.468Z,21.53
2018-12-19T03:07:16.012Z,21.33
2018-12-19T03:09:43.467Z,20.63
2018-12-19T03:12:10.926Z,20.57
2018-12-19T03:14:38.384Z,20.87
2018-12-19T03:17:05.935Z,22.00
2018-12-19T03:19:33.481Z,21.63
2018-12-19T03:22:00.922Z,20.77
2018-12-19T03:24:28.428Z,20.03
2018-12-19T03:26:55.903Z,21.30
2018-12-19T03:29:23.343Z,21.20
2018-12-19T03:31:50.801Z,19.93
2018-12-19T03:34:18.259Z,21.93
2018-12-19T03:36:45.706Z,21.23
2018-12-19T03:39:13.162Z,21.40
2018-12-19T03:41:40.660Z,21.50
2018-12-19T03:44:08.155Z,21.73
2018-12-19T03:46:35.635Z,21.67
2018-12-19T03:49:03.171Z,21.20
2018-12-19T03:51:30.629Z,21.73
2018-12-19T03:53:58.146Z,20.83
2018-12-19T03:56:25.626Z,22.10
2018-12-19T03:58:53.055Z,21.57
2018-12-19T04:01:20.528Z,20.83
2018-12-19T04:03:48.021Z,22.40
2018-12-19T04:06:15.778Z,21.47
2018-12-19T04:08:43.239Z,21.20
2018-12-19T04:11:10.818Z,20.90
2018-12-19T04:13:38.274Z,20.80
2018-12-19T04:16:05.756Z,22.37
2018-12-19T04:18:33.196Z,22.00
2018-12-19T04:21:00.760Z,21.00
2018-12-19T04:23:28.214Z,20.67
2018-12-19T04:25:55.706Z,20.90
2018-12-19T04:28:23.153Z,19.43
2018-12-19T04:30:50.608Z,20.90
2018-12-19T04:33:18.059Z,20.53
2018-12-19T04:35:45.734Z,19.87
2018-12-19T04:38:13.646Z,20.23
2018-12-19T04:40:41.078Z,20.53
2018-12-19T04:43:08.530Z,21.50
2018-12-19T04:45:36.043Z,20.70
2018-12-19T04:48:03.519Z,20.47
2018-12-19T04:50:30.955Z,19.17
2018-12-19T04:52:58.434Z,21.20
2018-12-19T04:55:25.872Z,20.43
2018-12-19T04:57:53.347Z,20.90
2018-12-19T05:00:20.835Z,19.47
2018-12-19T05:02:48.368Z,20.10
2018-12-19T05:05:15.843Z,19.97
2018-12-19T05:07:43.440Z,18.80
2018-12-19T05:10:12.481Z,20.23
2018-12-19T05:12:40.139Z,20.53
2018-12-19T05:15:07.759Z,19.37
2018-12-19T05:17:35.186Z,19.93
2018-12-19T05:20:02.785Z,20.13
2018-12-19T05:22:30.246Z,19.60
2018-12-19T05:24:57.693Z,19.37
2018-12-19T05:27:25.170Z,19.00
2018-12-19T05:29:53.263Z,19.40
2018-12-19T05:32:20.945Z,19.33
2018-12-19T05:34:48.408Z,19.60
2018-12-19T05:37:15.919Z,20.40
2018-12-19T05:39:43.355Z,20.07
2018-12-19T05:42:10.783Z,20.03
2018-12-19T05:44:38.242Z,19.57
2018-12-19T05:47:06.248Z,20.00
2018-12-19T05:49:34.458Z,20.60
2018-12-19T05:52:01.878Z,19.17
2018-12-19T05:54:29.341Z,19.23
2018-12-19T05:56:56.796Z,18.77
2018-12-19T05:59:24.233Z,18.77
2018-12-19T06:01:51.710Z,19.27
2018-12-19T06:04:19.119Z,19.60
2018-12-19T06:06:46.570Z,19.10
2018-12-19T06:09:14.007Z,18.57
2018-12-19T06:11:41.495Z,19.17
2018-12-19T06:14:09.099Z,18.67
2018-12-19T06:16:36.548Z,18.37
2018-12-19T06:19:04.056Z,18.37
2018-12-19T06:21:32.266Z,18.80
2018-12-19T06:23:59.864Z,17.60
2018-12-19T06:26:27.298Z,18.07
2018-12-19T06:28:54.755Z,18.00
2018-12-19T06:31:22.202Z,17.83
2018-12-19T06:33:49.810Z,17.43
2018-12-19T06:36:17.295Z,18.57
2018-12-19T06:38:44.735Z,17.47
2018-12-19T06:41:12.202Z,18.43
2018-12-19T06:43:39.711Z,17.60
2018-12-19T06:46:07.164Z,17.53
2018-12-19T06:48:34.633Z,17.30
2018-12-19T06:51:02.147Z,17.07
2018-12-19T06:53:29.598Z,17.20
2018-12-19T06:55:57.044Z,16.77
2018-12-19T06:58:24.499Z,17.93
2018-12-19T07:00:51.939Z,16.53
2018-12-19T07:03:19.411Z,17.40
2018-12-19T07:05:46.877Z,17.27
2018-12-19T07:08:14.391Z,15.50
2018-12-19T07:10:41.862Z,17.77
2018-12-19T07:13:09.316Z,16.47
2018-12-19T07:15:37.891Z,16.20
2018-12-19T07:18:05.371Z,16.83
2018-12-19T07:20:32.916Z,16.67
2018-12-19T07:23:00.378Z,16.80
2018-12-19T07:25:27.863Z,17.10
2018-12-19T07:27:55.404Z,16.67
2018-12-19T07:30:22.866Z,16.70
2018-12-19T07:32:50.318Z,18.00
2018-12-19T07:35:17.794Z,16.03
2018-12-19T07:37:45.247Z,16.97
2018-12-19T07:40:12.684Z,17.13
2018-12-19T07:42:40.170Z,16.33
2018-12-19T07:45:07.675Z,16.07
2018-12-19T07:47:35.158Z,17.67
2018-12-19T07:50:03.061Z,17.27
2018-12-19T07:52:30.527Z,17.57
2018-12-19T07:54:58.076Z,16.30
2018-12-19T07:57:25.523Z,16.87
2018-12-19T07:59:52.967Z,16.17
2018-12-19T08:02:20.425Z,17.33
2018-12-19T08:04:48.130Z,15.43
2018-12-19T08:07:15.628Z,15.83
2018-12-19T08:09:43.070Z,15.43
2018-12-19T08:12:10.546Z,16.30
2018-12-19T08:14:38.041Z,16.83
2018-12-19T08:17:05.463Z,16.40
2018-12-19T08:19:32.919Z,16.83
2018-12-19T08:22:00.382Z,16.83
2018-12-19T08:24:27.836Z,15.50
2018-12-19T08:26:55.272Z,17.33
2018-12-19T08:29:22.727Z,17.37
2018-12-19T08:31:50.163Z,16.70
2018-12-19T08:34:17.616Z,16.50
2018-12-19T08:36:45.234Z,16.70
2018-12-19T08:39:12.733Z,15.77
2018-12-19T08:41:40.884Z,15.93
2018-12-19T08:44:08.339Z,16.50
2018-12-19T08:46:35.800Z,16.50
2018-12-19T08:49:03.247Z,15.73
2018-12-19T08:51:30.690Z,16.40
2018-12-19T08:53:58.131Z,16.00
2018-12-19T08:56:25.654Z,14.33
2018-12-19T08:58:53.128Z,14.63
2018-12-19T09:01:20.563Z,15.83
2018-12-19T09:03:48.008Z,16.80
2018-12-19T09:06:15.483Z,15.63
2018-12-19T09:08:42.916Z,15.43
2018-12-19T09:11:10.365Z,14.53
2018-12-19T09:13:37.862Z,15.27
2018-12-19T09:16:05.314Z,15.93
2018-12-19T09:18:32.798Z,16.90
2018-12-19T09:21:00.287Z,16.60
2018-12-19T09:23:27.751Z,18.27
2018-12-19T09:25:55.189Z,16.50
2018-12-19T09:28:22.634Z,15.60
2018-12-19T09:30:50.073Z,16.50
2018-12-19T09:33:17.517Z,17.43
2018-12-19T09:35:44.999Z,17.10
2018-12-19T09:38:12.454Z,18.03
2018-12-19T09:40:39.886Z,16.80
2018-12-19T09:43:07.335Z,17.60
2018-12-19T09:45:34.762Z,17.53
2018-12-19T09:48:02.222Z,17.97
2018-12-19T09:50:30.703Z,18.87
2018-12-19T09:52:58.191Z,18.43
2018-12-19T09:55:25.631Z,17.83
2018-12-19T09:57:53.088Z,18.57
2018-12-19T10:00:26.142Z,18.70
2018-12-19T10:02:53.581Z,15.83
2018-12-19T10:05:21.148Z,17.43
2018-12-19T10:07:48.599Z,19.00
2018-12-19T10:10:16.059Z,17.37
2018-12-19T10:12:43.529Z,16.97
2018-12-19T10:15:10.982Z,17.93
2018-12-19T10:17:41.090Z,17.90
2018-12-19T10:20:08.002Z,18.13
2018-12-19T10:22:35.454Z,19.03
2018-12-19T10:25:08.663Z,16.00
2018-12-19T10:27:36.115Z,16.60
2018-12-19T10:30:06.943Z,18.17
2018-12-19T10:32:38.352Z,17.77
2018-12-19T10:35:07.194Z,17.67
2018-12-19T10:37:34.677Z,17.30
2018-12-19T10:40:02.342Z,17.70
2018-12-19T10:42:29.778Z,18.57
2018-12-19T10:44:57.211Z,17.67
2018-12-19T10:47:24.675Z,17.47
2018-12-19T10:49:52.103Z,16.87
2018-12-19T10:52:19.563Z,17.27
2018-12-19T10:54:47.002Z,17.90
2018-12-19T10:57:14.462Z,16.47
2018-12-19T10:59:41.920Z,15.50
2018-12-19T11:02:09.387Z,17.53
2018-12-19T11:04:36.835Z,17.17
2018-12-19T11:07:04.351Z,18.00
2018-12-19T11:09:31.801Z,18.80
2018-12-19T11:11:59.258Z,16.60
2018-12-19T11:14:27.532Z,19.13
2018-12-19T11:16:55.544Z,18.13
2018-12-19T11:19:23.052Z,17.77
2018-12-19T11:21:50.512Z,18.87
2018-12-19T11:24:18.113Z,19.13
2018-12-19T11:26:45.731Z,19.77
2018-12-19T11:29:13.192Z,19.80
2018-12-19T11:31:40.819Z,20.07
2018-12-19T11:34:08.304Z,19.20
2018-12-19T11:36:35.740Z,19.37
2018-12-19T11:39:06.746Z,20.10
2018-12-19T11:41:38.960Z,19.83
2018-12-19T11:44:03.970Z,19.57
2018-12-19T11:46:31.477Z,20.53
2018-12-19T11:48:58.931Z,19.87
2018-12-19T11:51:26.362Z,20.90
2018-12-19T11:53:53.879Z,20.20
2018-12-19T11:56:21.438Z,20.67
2018-12-19T11:58:48.882Z,20.17
2018-12-19T12:01:16.391Z,21.57
2018-12-19T12:03:43.847Z,20.67
2018-12-19T12:06:11.346Z,20.70
2018-12-19T12:08:38.794Z,21.90
2018-12-19T12:11:06.259Z,22.73
2018-12-19T12:13:33.788Z,22.13
2018-12-19T12:16:01.235Z,22.43
2018-12-19T12:18:28.686Z,22.10
2018-12-19T12:20:56.128Z,22.37
2018-12-19T12:23:23.706Z,22.77
2018-12-19T12:25:51.222Z,22.07
2018-12-19T12:28:18.659Z,23.97
2018-12-19T12:30:46.098Z,23.93
2018-12-19T12:33:13.565Z,24.37
2018-12-19T12:35:41.063Z,23.50
2018-12-19T12:38:08.529Z,22.33
2018-12-19T12:40:35.971Z,22.80
2018-12-19T12:43:03.451Z,22.97
2018-12-19T12:45:30.917Z,24.40
2018-12-19T12:47:58.567Z,24.63
2018-12-19T12:50:25.994Z,22.70
2018-12-19T12:52:53.433Z,22.90
2018-12-19T12:55:20.895Z,22.53
2018-12-19T12:57:48.324Z,24.70
2018-12-19T13:00:15.782Z,24.73
2018-12-19T13:02:43.214Z,24.97
2018-12-19T13:05:10.679Z,25.33
2018-12-19T13:07:38.121Z,24.57
2018-12-19T13:10:08.155Z,24.47
2018-12-19T13:12:35.583Z,25.47
2018-12-19T13:15:03.909Z,25.27
2018-12-19T13:17:31.514Z,24.90
2018-12-19T13:19:59.026Z,25.83
2018-12-19T13:22:26.459Z,26.67
2018-12-19T13:24:54.067Z,24.83
2018-12-19T13:27:21.527Z,25.40
2018-12-19T13:29:48.989Z,25.83
2018-12-19T13:32:16.695Z,26.90
2018-12-19T13:34:44.226Z,25.57
2018-12-19T13:40:18.460Z,26.50
2018-12-19T13:42:45.946Z,25.63
2018-12-19T13:45:13.502Z,28.00
2018-12-19T13:47:40.959Z,26.37
2018-12-19T13:50:08.515Z,27.13
2018-12-19T13:52:35.968Z,26.87
2018-12-19T13:55:04.142Z,26.93
2018-12-19T13:57:31.568Z,26.83
2018-12-19T13:59:59.036Z,27.43
2018-12-19T14:02:26.510Z,27.30
2018-12-19T14:04:53.968Z,26.57
2018-12-19T14:07:21.436Z,26.73
2018-12-19T14:09:48.888Z,27.50
2018-12-19T14:12:16.444Z,26.53
2018-12-19T14:14:43.990Z,27.70
2018-12-19T14:17:11.430Z,26.83
2018-12-19T14:19:38.846Z,26.00
2018-12-19T14:22:06.295Z,26.47
2018-12-19T14:24:33.758Z,26.53
2018-12-19T14:27:01.287Z,27.53
2018-12-19T14:29:28.757Z,26.83
2018-12-19T14:31:56.187Z,26.60
2018-12-19T14:34:23.647Z,27.53
2018-12-19T14:36:51.139Z,26.77
2018-12-19T14:39:18.586Z,26.97
2018-12-19T14:41:46.022Z,26.73
2018-12-19T14:44:13.466Z,28.00
2018-12-19T14:46:41.003Z,27.70
2018-12-19T14:49:13.858Z,25.73
2018-12-19T14:51:37.907Z,27.27
2018-12-19T14:54:05.457Z,27.77
2018-12-19T14:56:32.902Z,28.13
2018-12-19T14:59:00.360Z,27.17
2018-12-19T15:01:27.783Z,28.17
2018-12-19T15:03:55.311Z,28.07
2018-12-19T15:06:22.748Z,30.00
2018-12-19T15:08:50.203Z,27.57
2018-12-19T15:11:17.749Z,28.23
2018-12-19T15:13:45.255Z,26.23
2018-12-19T15:16:12.802Z,25.07
2018-12-19T15:18:40.264Z,27.03
2018-12-19T15:21:07.728Z,26.77
2018-12-19T15:23:35.242Z,27.37
2018-12-19T15:26:02.738Z,26.63
2018-12-19T15:28:30.184Z,28.57
2018-12-19T15:30:57.640Z,26.20
2018-12-19T15:33:25.107Z,26.03
2018-12-19T15:35:52.710Z,27.10
2018-12-19T15:38:20.136Z,26.13
2018-12-19T15:40:47.595Z,26.90
2018-12-19T15:43:15.038Z,28.17
2018-12-19T15:45:42.508Z,28.40
2018-12-19T15:48:09.967Z,27.63
2018-12-19T15:50:37.415Z,26.97
2018-12-19T15:53:04.931Z,26.13
2018-12-19T15:55:32.386Z,28.43
2018-12-19T15:57:59.811Z,27.60
2018-12-19T16:00:27.331Z,27.53
2018-12-19T16:02:54.791Z,27.20
2018-12-19T16:05:22.262Z,26.47
2018-12-19T16:07:49.703Z,27.40
2018-12-19T16:10:17.161Z,26.77
2018-12-19T16:12:44.622Z,26.40
2018-12-19T16:15:28.512Z,26.43
2018-12-19T16:17:55.976Z,25.50
2018-12-19T16:20:23.516Z,24.47
2018-12-19T16:22:51.050Z,25.03
2018-12-19T16:25:18.552Z,25.57
2018-12-19T16:27:46.014Z,26.73
2018-12-19T16:30:13.601Z,27.53
2018-12-19T16:32:41.059Z,26.70
2018-12-19T16:35:08.629Z,26.57
2018-12-19T16:37:36.111Z,25.43
2018-12-19T16:40:04.163Z,26.10
2018-12-19T16:42:31.603Z,26.00
2018-12-19T16:44:59.084Z,26.43
2018-12-19T16:47:26.569Z,24.30
2018-12-19T16:49:54.015Z,24.73
2018-12-19T16:52:21.524Z,24.90
2018-12-19T16:54:48.954Z,25.27
2018-12-19T16:57:16.430Z,24.80
2018-12-19T16:59:43.862Z,26.07
2018-12-19T17:02:11.310Z,25.30
2018-12-19T17:04:38.746Z,25.33
2018-12-19T17:07:06.216Z,25.43
2018-12-19T17:09:33.675Z,24.77
2018-12-19T17:12:01.135Z,25.67
2018-12-19T17:14:28.576Z,25.73
2018-12-19T17:16:56.108Z,26.33
2018-12-19T17:19:23.581Z,26.17
2018-12-19T17:21:51.038Z,26.10
2018-12-19T17:24:18.487Z,26.60
2018-12-19T17:26:45.959Z,26.13
2018-12-19T17:29:13.388Z,25.27
2018-12-19T17:31:40.839Z,25.23
2018-12-19T17:34:08.256Z,25.43
2018-12-19T17:36:35.708Z,26.07
2018-12-19T17:39:05.063Z,24.60
2018-12-19T17:41:32.552Z,26.63
2018-12-19T17:44:00.009Z,25.60
2018-12-19T17:46:27.458Z,24.77
2018-12-19T17:48:54.952Z,25.60
2018-12-19T17:51:22.399Z,26.70
2018-12-19T17:53:49.830Z,25.40
2018-12-19T17:56:17.311Z,26.10
2018-12-19T17:58:44.768Z,27.20
2018-12-19T18:01:12.327Z,25.60
2018-12-19T18:03:39.850Z,25.63
2018-12-19T18:06:07.350Z,25.73
2018-12-19T18:08:34.803Z,25.90
2018-12-19T18:11:02.245Z,25.80
2018-12-19T18:13:29.789Z,25.27
2018-12-19T18:15:57.227Z,26.50
2018-12-19T18:18:24.736Z,26.57
2018-12-19T18:20:52.155Z,26.40
2018-12-19T18:23:19.591Z,26.63
2018-12-19T18:25:47.049Z,26.13
2018-12-19T18:28:14.477Z,26.70
2018-12-19T18:30:41.907Z,26.87
2018-12-19T18:33:09.395Z,25.83
2018-12-19T18:35:36.839Z,27.37
2018-12-19T18:38:04.297Z,25.20
2018-12-19T18:40:31.752Z,27.33
2018-12-19T18:42:59.219Z,27.47
2018-12-19T18:45:27.300Z,26.63
2018-12-19T18:47:54.815Z,27.00
2018-12-19T18:50:22.271Z,27.37
2018-12-19T18:52:49.765Z,27.80
2018-12-19T18:55:17.325Z,27.87
2018-12-19T18:57:44.758Z,27.50
2018-12-19T19:00:14.418Z,25.77
2018-12-19T19:02:41.943Z,25.77
2018-12-19T19:05:10.609Z,25.47
2018-12-19T19:07:38.135Z,24.67
2018-12-19T19:10:06.818Z,23.90
2018-12-19T19:12:34.243Z,26.67
2018-12-19T19:15:01.692Z,25.07
2018-12-19T19:17:29.216Z,25.60
2018-12-19T19:19:56.655Z,26.90
2018-12-19T19:22:24.163Z,28.30
2018-12-19T19:24:51.605Z,28.33
2018-12-19T19:27:19.071Z,25.73
2018-12-19T19:29:46.636Z,27.10
2018-12-19T19:32:14.056Z,27.07
2018-12-19T19:34:41.514Z,28.50
2018-12-19T19:37:08.936Z,29.00
2018-12-19T19:39:36.386Z,29.10
2018-12-19T19:42:03.944Z,27.20
2018-12-19T19:44:31.404Z,26.13
2018-12-19T19:46:58.901Z,26.67
2018-12-19T19:49:26.375Z,28.00
2018-12-19T19:51:53.803Z,27.10
2018-12-19T19:54:21.411Z,26.13
2018-12-19T19:56:48.957Z,26.97
2018-12-19T19:59:16.500Z,26.57
2018-12-19T20:01:43.957Z,24.37
2018-12-19T20:04:11.418Z,23.80
2018-12-19T20:06:38.998Z,25.83
2018-12-19T20:09:07.864Z,24.37
2018-12-19T20:11:35.317Z,25.33
2018-12-19T20:14:02.776Z,25.50
2018-12-19T20:16:30.190Z,24.03
2018-12-19T20:18:58.191Z,23.87
2018-12-19T20:21:25.618Z,23.20
2018-12-19T20:23:54.147Z,23.40
2018-12-19T20:26:21.603Z,24.03
2018-12-19T20:28:49.074Z,24.70
2018-12-19T20:31:16.529Z,25.07
2018-12-19T20:33:43.969Z,25.03
2018-12-19T20:36:13.183Z,27.50
2018-12-19T20:38:40.711Z,24.87
2018-12-19T20:41:08.130Z,24.80
2018-12-19T20:43:39.886Z,24.97
2018-12-19T20:46:05.147Z,23.83
2018-12-19T20:48:32.595Z,24.33
2018-12-19T20:51:00.089Z,25.30
2018-12-19T20:53:27.563Z,23.23
2018-12-19T20:55:55.021Z,24.87
2018-12-19T20:58:22.513Z,24.20
2018-12-19T21:00:50.067Z,23.43
2018-12-19T21:03:17.602Z,23.37
2018-12-19T21:05:45.070Z,22.63
2018-12-19T21:08:12.519Z,23.93
2018-12-19T21:10:39.990Z,25.30
2018-12-19T21:13:07.487Z,22.70
2018-12-19T21:15:35.021Z,23.07
2018-12-19T21:18:08.003Z,21.37
2018-12-19T21:20:35.452Z,23.57
2018-12-19T21:23:02.899Z,23.03
2018-12-19T21:25:30.350Z,22.63
2018-12-19T21:27:57.847Z,23.07
2018-12-19T21:30:25.323Z,22.17
2018-12-19T21:32:52.779Z,22.40
2018-12-19T21:35:20.245Z,21.27
2018-12-19T21:37:47.693Z,21.83
2018-12-19T21:40:15.321Z,22.77
2018-12-19T21:42:42.815Z,22.30
2018-12-19T21:45:10.412Z,22.30
2018-12-19T21:47:37.902Z,23.93
2018-12-19T21:50:07.140Z,23.03
2018-12-19T21:52:34.699Z,23.30
2018-12-19T21:55:02.255Z,21.93
2018-12-19T21:57:29.751Z,23.20
2018-12-19T21:59:57.320Z,23.13
2018-12-19T22:02:24.839Z,23.13
2018-12-19T22:04:52.301Z,23.87
2018-12-19T22:07:19.814Z,23.17
2018-12-19T22:09:47.400Z,22.90
2018-12-19T22:12:16.005Z,22.97
2018-12-19T22:14:43.588Z,23.20
2018-12-19T22:17:16.661Z,23.10
2018-12-19T22:19:44.112Z,22.17
2018-12-19T22:22:11.597Z,22.47
2018-12-19T22:24:41.343Z,21.93
2018-12-19T22:27:08.843Z,22.50
2018-12-19T22:29:36.327Z,22.60
2018-12-19T22:32:03.835Z,23.17
2018-12-19T22:34:31.299Z,22.27
2018-12-19T22:36:58.751Z,22.73
2018-12-19T22:39:26.236Z,22.93
2018-12-19T22:41:53.793Z,22.67
2018-12-19T22:44:21.295Z,23.20
2018-12-19T22:46:48.755Z,23.07
2018-12-19T22:49:16.188Z,22.70
2018-12-19T22:51:43.681Z,23.43
2018-12-19T22:54:11.298Z,22.57
2018-12-19T22:56:38.864Z,23.23
2018-12-19T22:59:06.387Z,22.53
2018-12-19T23:01:40.118Z,22.60
2018-12-19T23:04:14.476Z,22.77
2018-12-19T23:06:41.983Z,22.83
2018-12-19T23:09:09.556Z,22.77
2018-12-19T23:11:37.028Z,22.93
2018-12-19T23:14:04.610Z,23.70
2018-12-19T23:16:32.288Z,23.37
2018-12-19T23:18:59.791Z,23.37
2018-12-19T23:21:27.280Z,24.00
2018-12-19T23:23:54.811Z,22.47
2018-12-19T23:26:22.282Z,23.20
2018-12-19T23:28:51.794Z,22.97
2018-12-19T23:31:19.398Z,23.50
2018-12-19T23:33:46.923Z,22.20
2018-12-19T23:36:14.515Z,23.00
2018-12-19T23:38:41.993Z,22.57
2018-12-19T23:41:09.532Z,23.10
2018-12-19T23:43:37.003Z,22.17
2018-12-19T23:46:04.447Z,23.20
2018-12-19T23:48:31.929Z,23.43
2018-12-19T23:50:59.472Z,23.63
2018-12-19T23:53:26.983Z,22.57
2018-12-19T23:55:54.528Z,23.63
2018-12-19T23:58:22.082Z,22.63
